sensor_id;sensor_type;location;lat;lon;timestamp;P1;durP1;ratioP1;P2;durP2;ratioP2
84275;SDS011;74432;51.212;3.254;2024-03-17T00:01:04;10.90;;;6.00;;
84275;SDS011;74432;51.212;3.254;2024-03-17T00:03:30;13.35;;;6.32;;
84275;SDS011;74432;51.212;3.254;2024-03-17T00:05:59;10.20;;;6.43;;
84275;SDS011;74432;51.212;3.254;2024-03-17T00:08:25;9.65;;;6.13;;
84275;SDS011;74432;51.212;3.254;2024-03-17T00:10:55;8.60;;;6.25;;
84275;SDS011;74432;51.212;3.254;2024-03-17T00:13:21;8.82;;;5.90;;
84275;SDS011;74432;51.212;3.254;2024-03-17T00:15:48;8.60;;;6.60;;
84275;SDS011;74432;51.212;3.254;2024-03-17T00:18:13;11.88;;;6.35;;
84275;SDS011;74432;51.212;3.254;2024-03-17T00:20:39;11.90;;;6.10;;
84275;SDS011;74432;51.212;3.254;2024-03-17T00:23:05;15.63;;;6.47;;
84275;SDS011;74432;51.212;3.254;2024-03-17T00:25:32;13.15;;;6.32;;
84275;SDS011;74432;51.212;3.254;2024-03-17T00:27:59;10.48;;;6.57;;
84275;SDS011;74432;51.212;3.254;2024-03-17T00:30:25;11.25;;;6.70;;
84275;SDS011;74432;51.212;3.254;2024-03-17T00:32:50;11.25;;;6.07;;
84275;SDS011;74432;51.212;3.254;2024-03-17T00:35:16;10.55;;;6.53;;
84275;SDS011;74432;51.212;3.254;2024-03-17T00:37:48;10.65;;;6.18;;
84275;SDS011;74432;51.212;3.254;2024-03-17T00:40:15;11.73;;;6.82;;
84275;SDS011;74432;51.212;3.254;2024-03-17T00:42:43;10.93;;;6.00;;
84275;SDS011;74432;51.212;3.254;2024-03-17T00:45:12;9.75;;;6.70;;
84275;SDS011;74432;51.212;3.254;2024-03-17T00:47:38;9.60;;;6.47;;
84275;SDS011;74432;51.212;3.254;2024-03-17T00:50:04;12.10;;;6.95;;
84275;SDS011;74432;51.212;3.254;2024-03-17T00:52:32;10.93;;;6.55;;
84275;SDS011;74432;51.212;3.254;2024-03-17T00:54:58;11.40;;;6.65;;
84275;SDS011;74432;51.212;3.254;2024-03-17T00:57:23;10.88;;;6.88;;
84275;SDS011;74432;51.212;3.254;2024-03-17T00:59:50;13.13;;;6.97;;
84275;SDS011;74432;51.212;3.254;2024-03-17T01:02:17;10.38;;;6.68;;
84275;SDS011;74432;51.212;3.254;2024-03-17T01:04:43;11.10;;;7.47;;
84275;SDS011;74432;51.212;3.254;2024-03-17T01:07:09;9.80;;;6.85;;
84275;SDS011;74432;51.212;3.254;2024-03-17T01:09:35;10.98;;;6.80;;
84275;SDS011;74432;51.212;3.254;2024-03-17T01:12:01;11.43;;;7.10;;
84275;SDS011;74432;51.212;3.254;2024-03-17T01:14:28;10.75;;;7.10;;
84275;SDS011;74432;51.212;3.254;2024-03-17T01:16:54;13.75;;;7.18;;
84275;SDS011;74432;51.212;3.254;2024-03-17T01:19:23;10.90;;;6.65;;
84275;SDS011;74432;51.212;3.254;2024-03-17T01:21:50;13.13;;;7.00;;
84275;SDS011;74432;51.212;3.254;2024-03-17T01:24:16;12.90;;;7.30;;
84275;SDS011;74432;51.212;3.254;2024-03-17T01:26:42;12.30;;;7.53;;
84275;SDS011;74432;51.212;3.254;2024-03-17T01:29:08;11.52;;;6.95;;
84275;SDS011;74432;51.212;3.254;2024-03-17T01:31:34;10.98;;;7.00;;
84275;SDS011;74432;51.212;3.254;2024-03-17T01:34:00;10.25;;;6.70;;
84275;SDS011;74432;51.212;3.254;2024-03-17T01:36:28;10.63;;;6.43;;
84275;SDS011;74432;51.212;3.254;2024-03-17T01:38:54;11.68;;;6.78;;
84275;SDS011;74432;51.212;3.254;2024-03-17T01:41:20;11.05;;;7.07;;
84275;SDS011;74432;51.212;3.254;2024-03-17T01:43:45;12.73;;;6.97;;
84275;SDS011;74432;51.212;3.254;2024-03-17T01:46:13;9.82;;;6.68;;
84275;SDS011;74432;51.212;3.254;2024-03-17T01:48:40;10.30;;;6.25;;
84275;SDS011;74432;51.212;3.254;2024-03-17T01:51:07;13.68;;;7.38;;
84275;SDS011;74432;51.212;3.254;2024-03-17T01:53:35;11.45;;;6.95;;
84275;SDS011;74432;51.212;3.254;2024-03-17T01:56:02;10.65;;;6.78;;
84275;SDS011;74432;51.212;3.254;2024-03-17T01:58:30;11.43;;;6.60;;
84275;SDS011;74432;51.212;3.254;2024-03-17T02:00:56;10.27;;;6.80;;
84275;SDS011;74432;51.212;3.254;2024-03-17T02:03:22;11.85;;;6.60;;
84275;SDS011;74432;51.212;3.254;2024-03-17T02:05:47;10.98;;;6.65;;
84275;SDS011;74432;51.212;3.254;2024-03-17T02:08:13;10.40;;;6.60;;
84275;SDS011;74432;51.212;3.254;2024-03-17T02:10:39;12.02;;;7.20;;
84275;SDS011;74432;51.212;3.254;2024-03-17T02:13:05;11.00;;;7.22;;
84275;SDS011;74432;51.212;3.254;2024-03-17T02:15:31;12.20;;;6.85;;
84275;SDS011;74432;51.212;3.254;2024-03-17T02:17:57;11.98;;;6.88;;
84275;SDS011;74432;51.212;3.254;2024-03-17T02:20:23;10.05;;;7.10;;
84275;SDS011;74432;51.212;3.254;2024-03-17T02:23:12;12.38;;;6.60;;
84275;SDS011;74432;51.212;3.254;2024-03-17T02:25:38;11.85;;;6.97;;
84275;SDS011;74432;51.212;3.254;2024-03-17T02:28:04;10.57;;;6.95;;
84275;SDS011;74432;51.212;3.254;2024-03-17T02:30:30;9.40;;;6.90;;
84275;SDS011;74432;51.212;3.254;2024-03-17T02:32:56;9.68;;;6.50;;
84275;SDS011;74432;51.212;3.254;2024-03-17T02:35:23;10.63;;;6.68;;
84275;SDS011;74432;51.212;3.254;2024-03-17T02:37:49;13.18;;;6.65;;
84275;SDS011;74432;51.212;3.254;2024-03-17T02:40:15;12.07;;;6.65;;
84275;SDS011;74432;51.212;3.254;2024-03-17T02:42:41;10.82;;;7.15;;
84275;SDS011;74432;51.212;3.254;2024-03-17T02:45:10;10.82;;;6.68;;
84275;SDS011;74432;51.212;3.254;2024-03-17T02:47:39;12.00;;;6.65;;
84275;SDS011;74432;51.212;3.254;2024-03-17T02:50:06;9.02;;;6.35;;
84275;SDS011;74432;51.212;3.254;2024-03-17T02:52:32;14.65;;;6.50;;
84275;SDS011;74432;51.212;3.254;2024-03-17T02:54:58;12.48;;;6.93;;
84275;SDS011;74432;51.212;3.254;2024-03-17T02:57:24;10.77;;;7.15;;
84275;SDS011;74432;51.212;3.254;2024-03-17T02:59:54;10.90;;;7.30;;
84275;SDS011;74432;51.212;3.254;2024-03-17T03:02:23;10.93;;;7.15;;
84275;SDS011;74432;51.212;3.254;2024-03-17T03:04:49;13.60;;;7.60;;
84275;SDS011;74432;51.212;3.254;2024-03-17T03:07:15;10.32;;;7.32;;
84275;SDS011;74432;51.212;3.254;2024-03-17T03:09:41;12.35;;;7.60;;
84275;SDS011;74432;51.212;3.254;2024-03-17T03:12:07;11.00;;;7.18;;
84275;SDS011;74432;51.212;3.254;2024-03-17T03:14:32;8.93;;;6.85;;
84275;SDS011;74432;51.212;3.254;2024-03-17T03:16:59;12.05;;;6.93;;
84275;SDS011;74432;51.212;3.254;2024-03-17T03:19:25;10.27;;;7.10;;
84275;SDS011;74432;51.212;3.254;2024-03-17T03:21:52;13.07;;;7.30;;
84275;SDS011;74432;51.212;3.254;2024-03-17T03:24:18;11.50;;;7.28;;
84275;SDS011;74432;51.212;3.254;2024-03-17T03:26:44;13.50;;;7.63;;
84275;SDS011;74432;51.212;3.254;2024-03-17T03:29:10;13.35;;;7.68;;
84275;SDS011;74432;51.212;3.254;2024-03-17T03:31:36;14.40;;;7.55;;
84275;SDS011;74432;51.212;3.254;2024-03-17T03:34:04;11.73;;;7.38;;
84275;SDS011;74432;51.212;3.254;2024-03-17T03:36:32;11.60;;;7.18;;
84275;SDS011;74432;51.212;3.254;2024-03-17T03:38:58;12.55;;;7.55;;
84275;SDS011;74432;51.212;3.254;2024-03-17T03:41:24;13.80;;;6.97;;
84275;SDS011;74432;51.212;3.254;2024-03-17T03:43:50;12.15;;;7.20;;
84275;SDS011;74432;51.212;3.254;2024-03-17T03:46:16;13.40;;;7.38;;
84275;SDS011;74432;51.212;3.254;2024-03-17T03:48:41;11.13;;;7.03;;
84275;SDS011;74432;51.212;3.254;2024-03-17T03:51:08;11.07;;;6.90;;
84275;SDS011;74432;51.212;3.254;2024-03-17T03:53:34;11.32;;;6.80;;
84275;SDS011;74432;51.212;3.254;2024-03-17T03:56:02;11.75;;;7.25;;
84275;SDS011;74432;51.212;3.254;2024-03-17T03:58:31;9.43;;;5.97;;
84275;SDS011;74432;51.212;3.254;2024-03-17T04:01:00;14.70;;;6.78;;
84275;SDS011;74432;51.212;3.254;2024-03-17T04:03:28;10.35;;;6.40;;
84275;SDS011;74432;51.212;3.254;2024-03-17T04:06:00;12.02;;;7.03;;
84275;SDS011;74432;51.212;3.254;2024-03-17T04:08:30;12.10;;;7.35;;
84275;SDS011;74432;51.212;3.254;2024-03-17T04:10:57;12.02;;;7.07;;
84275;SDS011;74432;51.212;3.254;2024-03-17T04:13:23;10.07;;;6.65;;
84275;SDS011;74432;51.212;3.254;2024-03-17T04:15:48;13.40;;;7.00;;
84275;SDS011;74432;51.212;3.254;2024-03-17T04:18:14;13.60;;;7.07;;
84275;SDS011;74432;51.212;3.254;2024-03-17T04:20:42;12.48;;;7.40;;
84275;SDS011;74432;51.212;3.254;2024-03-17T04:23:08;12.20;;;6.80;;
84275;SDS011;74432;51.212;3.254;2024-03-17T04:25:33;11.18;;;6.57;;
84275;SDS011;74432;51.212;3.254;2024-03-17T04:27:59;10.27;;;6.35;;
84275;SDS011;74432;51.212;3.254;2024-03-17T04:30:25;14.07;;;7.30;;
84275;SDS011;74432;51.212;3.254;2024-03-17T04:32:50;12.07;;;7.05;;
84275;SDS011;74432;51.212;3.254;2024-03-17T04:35:17;12.70;;;7.07;;
84275;SDS011;74432;51.212;3.254;2024-03-17T04:37:43;9.98;;;7.07;;
84275;SDS011;74432;51.212;3.254;2024-03-17T04:40:08;14.10;;;7.05;;
84275;SDS011;74432;51.212;3.254;2024-03-17T04:42:35;10.65;;;7.13;;
84275;SDS011;74432;51.212;3.254;2024-03-17T04:45:01;11.30;;;6.75;;
84275;SDS011;74432;51.212;3.254;2024-03-17T04:47:26;10.68;;;6.30;;
84275;SDS011;74432;51.212;3.254;2024-03-17T04:49:52;10.30;;;7.15;;
84275;SDS011;74432;51.212;3.254;2024-03-17T04:52:18;9.63;;;6.80;;
84275;SDS011;74432;51.212;3.254;2024-03-17T04:54:43;11.90;;;6.65;;
84275;SDS011;74432;51.212;3.254;2024-03-17T04:57:09;10.13;;;7.00;;
84275;SDS011;74432;51.212;3.254;2024-03-17T04:59:35;13.75;;;7.28;;
84275;SDS011;74432;51.212;3.254;2024-03-17T05:02:01;9.02;;;6.65;;
84275;SDS011;74432;51.212;3.254;2024-03-17T05:04:27;12.27;;;6.88;;
84275;SDS011;74432;51.212;3.254;2024-03-17T05:06:53;9.82;;;6.50;;
84275;SDS011;74432;51.212;3.254;2024-03-17T05:09:19;9.73;;;6.63;;
84275;SDS011;74432;51.212;3.254;2024-03-17T05:11:45;9.90;;;6.38;;
84275;SDS011;74432;51.212;3.254;2024-03-17T05:14:12;10.20;;;6.65;;
84275;SDS011;74432;51.212;3.254;2024-03-17T05:16:38;11.40;;;7.00;;
84275;SDS011;74432;51.212;3.254;2024-03-17T05:19:04;9.38;;;6.65;;
84275;SDS011;74432;51.212;3.254;2024-03-17T05:21:30;10.85;;;6.68;;
84275;SDS011;74432;51.212;3.254;2024-03-17T05:23:56;11.48;;;7.05;;
84275;SDS011;74432;51.212;3.254;2024-03-17T05:26:25;10.13;;;6.60;;
84275;SDS011;74432;51.212;3.254;2024-03-17T05:28:51;8.38;;;6.50;;
84275;SDS011;74432;51.212;3.254;2024-03-17T05:31:16;10.10;;;5.90;;
84275;SDS011;74432;51.212;3.254;2024-03-17T05:33:43;12.43;;;6.55;;
84275;SDS011;74432;51.212;3.254;2024-03-17T05:36:11;10.77;;;6.47;;
84275;SDS011;74432;51.212;3.254;2024-03-17T05:38:37;8.38;;;5.82;;
84275;SDS011;74432;51.212;3.254;2024-03-17T05:41:03;12.23;;;6.80;;
84275;SDS011;74432;51.212;3.254;2024-03-17T05:43:33;11.82;;;6.80;;
84275;SDS011;74432;51.212;3.254;2024-03-17T05:46:03;13.57;;;6.35;;
84275;SDS011;74432;51.212;3.254;2024-03-17T05:48:33;14.82;;;6.50;;
84275;SDS011;74432;51.212;3.254;2024-03-17T05:51:02;9.30;;;6.60;;
84275;SDS011;74432;51.212;3.254;2024-03-17T05:53:28;10.63;;;6.45;;
84275;SDS011;74432;51.212;3.254;2024-03-17T05:55:57;9.15;;;6.57;;
84275;SDS011;74432;51.212;3.254;2024-03-17T05:58:24;11.40;;;6.53;;
84275;SDS011;74432;51.212;3.254;2024-03-17T06:00:49;9.13;;;6.22;;
84275;SDS011;74432;51.212;3.254;2024-03-17T06:03:15;11.52;;;6.25;;
84275;SDS011;74432;51.212;3.254;2024-03-17T06:05:42;12.45;;;6.85;;
84275;SDS011;74432;51.212;3.254;2024-03-17T06:08:09;11.65;;;5.75;;
84275;SDS011;74432;51.212;3.254;2024-03-17T06:10:36;12.65;;;6.40;;
84275;SDS011;74432;51.212;3.254;2024-03-17T06:13:03;8.73;;;6.72;;
84275;SDS011;74432;51.212;3.254;2024-03-17T06:15:29;13.48;;;6.40;;
84275;SDS011;74432;51.212;3.254;2024-03-17T06:17:55;8.70;;;6.25;;
84275;SDS011;74432;51.212;3.254;2024-03-17T06:20:22;11.10;;;6.22;;
84275;SDS011;74432;51.212;3.254;2024-03-17T06:22:54;8.20;;;5.97;;
84275;SDS011;74432;51.212;3.254;2024-03-17T06:25:20;9.13;;;6.20;;
84275;SDS011;74432;51.212;3.254;2024-03-17T06:27:49;11.57;;;6.30;;
84275;SDS011;74432;51.212;3.254;2024-03-17T06:30:18;9.90;;;6.00;;
84275;SDS011;74432;51.212;3.254;2024-03-17T06:32:44;17.02;;;6.38;;
84275;SDS011;74432;51.212;3.254;2024-03-17T06:35:14;11.40;;;5.55;;
84275;SDS011;74432;51.212;3.254;2024-03-17T06:37:43;9.73;;;6.03;;
84275;SDS011;74432;51.212;3.254;2024-03-17T06:40:13;12.35;;;6.07;;
84275;SDS011;74432;51.212;3.254;2024-03-17T06:42:40;10.30;;;5.93;;
84275;SDS011;74432;51.212;3.254;2024-03-17T06:45:06;10.48;;;6.22;;
84275;SDS011;74432;51.212;3.254;2024-03-17T06:47:34;9.65;;;5.47;;
84275;SDS011;74432;51.212;3.254;2024-03-17T06:50:02;11.65;;;5.80;;
84275;SDS011;74432;51.212;3.254;2024-03-17T06:52:31;10.15;;;6.35;;
84275;SDS011;74432;51.212;3.254;2024-03-17T06:54:57;7.53;;;5.82;;
84275;SDS011;74432;51.212;3.254;2024-03-17T06:57:23;11.60;;;6.47;;
84275;SDS011;74432;51.212;3.254;2024-03-17T06:59:49;10.93;;;6.65;;
84275;SDS011;74432;51.212;3.254;2024-03-17T07:02:16;8.10;;;6.30;;
84275;SDS011;74432;51.212;3.254;2024-03-17T07:04:46;10.95;;;6.10;;
84275;SDS011;74432;51.212;3.254;2024-03-17T07:07:13;11.40;;;6.07;;
84275;SDS011;74432;51.212;3.254;2024-03-17T07:09:39;8.30;;;6.18;;
84275;SDS011;74432;51.212;3.254;2024-03-17T07:12:06;9.38;;;6.25;;
84275;SDS011;74432;51.212;3.254;2024-03-17T07:14:32;10.63;;;6.47;;
84275;SDS011;74432;51.212;3.254;2024-03-17T07:16:58;10.85;;;6.38;;
84275;SDS011;74432;51.212;3.254;2024-03-17T07:19:23;8.73;;;6.68;;
84275;SDS011;74432;51.212;3.254;2024-03-17T07:21:49;11.07;;;6.22;;
84275;SDS011;74432;51.212;3.254;2024-03-17T07:24:15;11.60;;;6.30;;
84275;SDS011;74432;51.212;3.254;2024-03-17T07:26:41;8.75;;;5.95;;
84275;SDS011;74432;51.212;3.254;2024-03-17T07:29:07;8.85;;;5.38;;
84275;SDS011;74432;51.212;3.254;2024-03-17T07:31:33;12.73;;;6.18;;
84275;SDS011;74432;51.212;3.254;2024-03-17T07:33:59;10.88;;;6.40;;
84275;SDS011;74432;51.212;3.254;2024-03-17T07:36:25;11.43;;;6.30;;
84275;SDS011;74432;51.212;3.254;2024-03-17T07:38:50;15.57;;;6.40;;
84275;SDS011;74432;51.212;3.254;2024-03-17T07:41:17;10.40;;;5.53;;
84275;SDS011;74432;51.212;3.254;2024-03-17T07:43:44;9.70;;;6.22;;
84275;SDS011;74432;51.212;3.254;2024-03-17T07:46:10;9.98;;;5.70;;
84275;SDS011;74432;51.212;3.254;2024-03-17T07:48:37;11.60;;;6.45;;
84275;SDS011;74432;51.212;3.254;2024-03-17T07:51:07;9.57;;;5.75;;
84275;SDS011;74432;51.212;3.254;2024-03-17T07:53:38;10.73;;;6.22;;
84275;SDS011;74432;51.212;3.254;2024-03-17T07:56:06;9.70;;;5.70;;
84275;SDS011;74432;51.212;3.254;2024-03-17T07:58:35;11.27;;;5.72;;
84275;SDS011;74432;51.212;3.254;2024-03-17T08:01:03;13.82;;;5.90;;
84275;SDS011;74432;51.212;3.254;2024-03-17T08:03:34;14.43;;;6.37;;
84275;SDS011;74432;51.212;3.254;2024-03-17T08:06:02;11.38;;;5.57;;
84275;SDS011;74432;51.212;3.254;2024-03-17T08:08:29;11.60;;;5.78;;
84275;SDS011;74432;51.212;3.254;2024-03-17T08:10:56;11.65;;;5.95;;
84275;SDS011;74432;51.212;3.254;2024-03-17T08:13:22;9.52;;;5.85;;
84275;SDS011;74432;51.212;3.254;2024-03-17T08:15:57;10.15;;;5.63;;
84275;SDS011;74432;51.212;3.254;2024-03-17T08:18:24;11.60;;;6.25;;
84275;SDS011;74432;51.212;3.254;2024-03-17T08:20:52;14.85;;;6.38;;
84275;SDS011;74432;51.212;3.254;2024-03-17T08:23:18;8.57;;;5.95;;
84275;SDS011;74432;51.212;3.254;2024-03-17T08:25:51;14.48;;;6.35;;
84275;SDS011;74432;51.212;3.254;2024-03-17T08:28:24;12.40;;;6.03;;
84275;SDS011;74432;51.212;3.254;2024-03-17T08:30:52;8.50;;;5.93;;
84275;SDS011;74432;51.212;3.254;2024-03-17T08:33:25;14.57;;;6.65;;
84275;SDS011;74432;51.212;3.254;2024-03-17T08:38:30;11.30;;;6.13;;
84275;SDS011;74432;51.212;3.254;2024-03-17T08:40:57;9.15;;;5.47;;
84275;SDS011;74432;51.212;3.254;2024-03-17T08:43:34;10.43;;;6.30;;
84275;SDS011;74432;51.212;3.254;2024-03-17T08:46:01;9.45;;;6.22;;
84275;SDS011;74432;51.212;3.254;2024-03-17T08:48:28;12.95;;;6.28;;
84275;SDS011;74432;51.212;3.254;2024-03-17T08:50:57;11.65;;;6.05;;
84275;SDS011;74432;51.212;3.254;2024-03-17T08:53:23;7.80;;;5.82;;
84275;SDS011;74432;51.212;3.254;2024-03-17T08:55:49;14.70;;;6.40;;
84275;SDS011;74432;51.212;3.254;2024-03-17T08:58:16;10.27;;;5.70;;
84275;SDS011;74432;51.212;3.254;2024-03-17T09:00:42;10.02;;;5.32;;
84275;SDS011;74432;51.212;3.254;2024-03-17T09:03:08;11.07;;;5.75;;
84275;SDS011;74432;51.212;3.254;2024-03-17T09:05:35;7.70;;;5.97;;
84275;SDS011;74432;51.212;3.254;2024-03-17T09:08:01;12.43;;;6.25;;
84275;SDS011;74432;51.212;3.254;2024-03-17T09:10:28;14.10;;;6.43;;
84275;SDS011;74432;51.212;3.254;2024-03-17T09:12:54;11.13;;;5.85;;
84275;SDS011;74432;51.212;3.254;2024-03-17T09:15:19;10.50;;;5.93;;
84275;SDS011;74432;51.212;3.254;2024-03-17T09:17:45;11.18;;;5.85;;
84275;SDS011;74432;51.212;3.254;2024-03-17T09:20:12;13.10;;;5.72;;
84275;SDS011;74432;51.212;3.254;2024-03-17T09:22:40;11.13;;;5.93;;
84275;SDS011;74432;51.212;3.254;2024-03-17T09:25:08;10.55;;;5.40;;
84275;SDS011;74432;51.212;3.254;2024-03-17T09:27:34;11.85;;;6.13;;
84275;SDS011;74432;51.212;3.254;2024-03-17T09:30:04;14.45;;;6.10;;
84275;SDS011;74432;51.212;3.254;2024-03-17T09:32:37;9.95;;;5.65;;
84275;SDS011;74432;51.212;3.254;2024-03-17T09:35:03;7.85;;;5.32;;
84275;SDS011;74432;51.212;3.254;2024-03-17T09:37:30;10.20;;;5.55;;
84275;SDS011;74432;51.212;3.254;2024-03-17T09:39:59;10.95;;;5.95;;
84275;SDS011;74432;51.212;3.254;2024-03-17T09:42:25;13.60;;;6.38;;
84275;SDS011;74432;51.212;3.254;2024-03-17T09:44:55;13.23;;;5.97;;
84275;SDS011;74432;51.212;3.254;2024-03-17T09:47:21;10.98;;;6.18;;
84275;SDS011;74432;51.212;3.254;2024-03-17T09:49:48;8.52;;;5.68;;
84275;SDS011;74432;51.212;3.254;2024-03-17T09:52:22;15.13;;;6.85;;
84275;SDS011;74432;51.212;3.254;2024-03-17T09:54:51;10.20;;;5.75;;
84275;SDS011;74432;51.212;3.254;2024-03-17T09:57:26;12.35;;;6.20;;
84275;SDS011;74432;51.212;3.254;2024-03-17T09:59:54;11.57;;;6.35;;
84275;SDS011;74432;51.212;3.254;2024-03-17T10:02:20;10.13;;;6.07;;
84275;SDS011;74432;51.212;3.254;2024-03-17T10:04:47;10.88;;;5.80;;
84275;SDS011;74432;51.212;3.254;2024-03-17T10:07:13;8.88;;;5.60;;
84275;SDS011;74432;51.212;3.254;2024-03-17T10:09:40;9.38;;;6.00;;
84275;SDS011;74432;51.212;3.254;2024-03-17T10:12:23;9.13;;;5.78;;
84275;SDS011;74432;51.212;3.254;2024-03-17T10:15:00;9.50;;;5.90;;
84275;SDS011;74432;51.212;3.254;2024-03-17T10:17:30;9.68;;;5.47;;
84275;SDS011;74432;51.212;3.254;2024-03-17T10:20:13;8.18;;;6.07;;
84275;SDS011;74432;51.212;3.254;2024-03-17T10:25:35;9.77;;;5.85;;
84275;SDS011;74432;51.212;3.254;2024-03-17T10:28:09;9.85;;;5.65;;
84275;SDS011;74432;51.212;3.254;2024-03-17T10:30:36;12.80;;;5.55;;
84275;SDS011;74432;51.212;3.254;2024-03-17T10:33:02;11.43;;;5.72;;
84275;SDS011;74432;51.212;3.254;2024-03-17T10:35:32;13.82;;;5.75;;
84275;SDS011;74432;51.212;3.254;2024-03-17T10:38:06;8.00;;;5.18;;
84275;SDS011;74432;51.212;3.254;2024-03-17T10:40:33;10.48;;;5.05;;
84275;SDS011;74432;51.212;3.254;2024-03-17T10:43:02;10.35;;;5.30;;
84275;SDS011;74432;51.212;3.254;2024-03-17T10:45:28;11.63;;;5.82;;
84275;SDS011;74432;51.212;3.254;2024-03-17T10:50:27;13.90;;;5.05;;
84275;SDS011;74432;51.212;3.254;2024-03-17T10:52:55;8.73;;;5.97;;
84275;SDS011;74432;51.212;3.254;2024-03-17T10:55:27;8.77;;;5.15;;
84275;SDS011;74432;51.212;3.254;2024-03-17T10:57:59;10.30;;;5.53;;
84275;SDS011;74432;51.212;3.254;2024-03-17T11:00:29;10.82;;;5.13;;
84275;SDS011;74432;51.212;3.254;2024-03-17T11:02:55;9.63;;;4.93;;
84275;SDS011;74432;51.212;3.254;2024-03-17T11:07:48;9.82;;;5.47;;
84275;SDS011;74432;51.212;3.254;2024-03-17T11:10:19;11.82;;;5.53;;
84275;SDS011;74432;51.212;3.254;2024-03-17T11:20:36;9.98;;;4.95;;
84275;SDS011;74432;51.212;3.254;2024-03-17T11:23:04;9.20;;;4.78;;
84275;SDS011;74432;51.212;3.254;2024-03-17T11:28:03;11.68;;;5.32;;
84275;SDS011;74432;51.212;3.254;2024-03-17T11:39:00;7.68;;;4.70;;
84275;SDS011;74432;51.212;3.254;2024-03-17T11:41:46;9.48;;;4.68;;
84275;SDS011;74432;51.212;3.254;2024-03-17T11:44:16;10.35;;;4.85;;
84275;SDS011;74432;51.212;3.254;2024-03-17T11:46:57;11.10;;;6.15;;
84275;SDS011;74432;51.212;3.254;2024-03-17T11:49:29;9.93;;;4.30;;
84275;SDS011;74432;51.212;3.254;2024-03-17T11:51:57;11.65;;;4.40;;
84275;SDS011;74432;51.212;3.254;2024-03-17T11:54:32;10.27;;;4.43;;
84275;SDS011;74432;51.212;3.254;2024-03-17T11:57:02;11.13;;;4.57;;
84275;SDS011;74432;51.212;3.254;2024-03-17T11:59:30;8.30;;;4.32;;
84275;SDS011;74432;51.212;3.254;2024-03-17T12:01:57;11.73;;;4.15;;
84275;SDS011;74432;51.212;3.254;2024-03-17T12:04:24;8.10;;;3.80;;
84275;SDS011;74432;51.212;3.254;2024-03-17T12:09:23;7.93;;;4.07;;
84275;SDS011;74432;51.212;3.254;2024-03-17T12:12:10;6.30;;;3.10;;
84275;SDS011;74432;51.212;3.254;2024-03-17T12:14:39;9.65;;;3.50;;
84275;SDS011;74432;51.212;3.254;2024-03-17T12:17:05;9.20;;;3.25;;
84275;SDS011;74432;51.212;3.254;2024-03-17T12:19:36;6.38;;;3.55;;
84275;SDS011;74432;51.212;3.254;2024-03-17T12:22:03;9.55;;;3.90;;
84275;SDS011;74432;51.212;3.254;2024-03-17T12:24:31;10.18;;;3.35;;
84275;SDS011;74432;51.212;3.254;2024-03-17T12:26:58;10.02;;;3.47;;
84275;SDS011;74432;51.212;3.254;2024-03-17T12:31:52;8.18;;;3.00;;
84275;SDS011;74432;51.212;3.254;2024-03-17T12:34:20;9.82;;;3.50;;
84275;SDS011;74432;51.212;3.254;2024-03-17T12:36:47;7.32;;;2.85;;
84275;SDS011;74432;51.212;3.254;2024-03-17T12:39:18;5.80;;;2.90;;
84275;SDS011;74432;51.212;3.254;2024-03-17T12:41:44;12.90;;;2.63;;
84275;SDS011;74432;51.212;3.254;2024-03-17T12:44:23;9.20;;;3.40;;
84275;SDS011;74432;51.212;3.254;2024-03-17T12:46:54;6.28;;;3.33;;
84275;SDS011;74432;51.212;3.254;2024-03-17T12:49:21;7.50;;;2.75;;
84275;SDS011;74432;51.212;3.254;2024-03-17T12:51:49;9.70;;;2.58;;
84275;SDS011;74432;51.212;3.254;2024-03-17T12:54:16;6.60;;;3.15;;
84275;SDS011;74432;51.212;3.254;2024-03-17T12:56:45;6.85;;;3.30;;
84275;SDS011;74432;51.212;3.254;2024-03-17T12:59:39;8.52;;;3.47;;
84275;SDS011;74432;51.212;3.254;2024-03-17T13:02:24;6.72;;;2.58;;
84275;SDS011;74432;51.212;3.254;2024-03-17T13:07:39;6.50;;;3.00;;
84275;SDS011;74432;51.212;3.254;2024-03-17T13:10:05;5.55;;;2.20;;
84275;SDS011;74432;51.212;3.254;2024-03-17T13:12:32;6.38;;;2.85;;
84275;SDS011;74432;51.212;3.254;2024-03-17T13:15:01;7.55;;;2.30;;
84275;SDS011;74432;51.212;3.254;2024-03-17T13:17:28;5.25;;;2.35;;
84275;SDS011;74432;51.212;3.254;2024-03-17T13:19:59;10.50;;;2.40;;
84275;SDS011;74432;51.212;3.254;2024-03-17T13:22:26;5.82;;;2.40;;
84275;SDS011;74432;51.212;3.254;2024-03-17T13:24:51;6.38;;;2.90;;
84275;SDS011;74432;51.212;3.254;2024-03-17T13:27:17;10.32;;;2.42;;
84275;SDS011;74432;51.212;3.254;2024-03-17T13:29:47;5.93;;;2.45;;
84275;SDS011;74432;51.212;3.254;2024-03-17T13:32:13;7.90;;;2.72;;
84275;SDS011;74432;51.212;3.254;2024-03-17T13:34:38;7.25;;;2.60;;
84275;SDS011;74432;51.212;3.254;2024-03-17T13:37:04;7.65;;;2.85;;
84275;SDS011;74432;51.212;3.254;2024-03-17T13:39:30;7.63;;;2.72;;
84275;SDS011;74432;51.212;3.254;2024-03-17T13:41:57;8.18;;;3.13;;
84275;SDS011;74432;51.212;3.254;2024-03-17T13:44:28;4.50;;;2.80;;
84275;SDS011;74432;51.212;3.254;2024-03-17T13:46:57;8.73;;;3.05;;
84275;SDS011;74432;51.212;3.254;2024-03-17T13:49:24;6.68;;;3.50;;
84275;SDS011;74432;51.212;3.254;2024-03-17T13:51:52;17.58;;;7.35;;
84275;SDS011;74432;51.212;3.254;2024-03-17T13:54:18;8.02;;;4.70;;
84275;SDS011;74432;51.212;3.254;2024-03-17T13:56:47;6.45;;;4.07;;
84275;SDS011;74432;51.212;3.254;2024-03-17T13:59:16;10.10;;;4.13;;
84275;SDS011;74432;51.212;3.254;2024-03-17T14:01:43;6.68;;;3.60;;
84275;SDS011;74432;51.212;3.254;2024-03-17T14:04:13;7.43;;;3.47;;
84275;SDS011;74432;51.212;3.254;2024-03-17T14:06:40;9.10;;;3.88;;
84275;SDS011;74432;51.212;3.254;2024-03-17T14:09:06;7.45;;;3.45;;
84275;SDS011;74432;51.212;3.254;2024-03-17T14:11:34;6.80;;;3.35;;
84275;SDS011;74432;51.212;3.254;2024-03-17T14:14:00;5.47;;;2.83;;
84275;SDS011;74432;51.212;3.254;2024-03-17T14:16:25;5.28;;;2.92;;
84275;SDS011;74432;51.212;3.254;2024-03-17T14:18:51;12.98;;;4.82;;
84275;SDS011;74432;51.212;3.254;2024-03-17T14:21:17;15.63;;;8.27;;
84275;SDS011;74432;51.212;3.254;2024-03-17T14:23:42;7.03;;;3.97;;
84275;SDS011;74432;51.212;3.254;2024-03-17T14:26:10;8.98;;;3.30;;
84275;SDS011;74432;51.212;3.254;2024-03-17T14:28:36;6.55;;;3.13;;
84275;SDS011;74432;51.212;3.254;2024-03-17T14:31:01;6.63;;;3.63;;
84275;SDS011;74432;51.212;3.254;2024-03-17T14:33:27;5.60;;;3.03;;
84275;SDS011;74432;51.212;3.254;2024-03-17T14:35:55;4.18;;;2.78;;
84275;SDS011;74432;51.212;3.254;2024-03-17T14:38:22;4.43;;;2.78;;
84275;SDS011;74432;51.212;3.254;2024-03-17T14:40:50;5.38;;;2.95;;
84275;SDS011;74432;51.212;3.254;2024-03-17T14:43:16;5.88;;;2.97;;
84275;SDS011;74432;51.212;3.254;2024-03-17T14:45:42;5.18;;;3.13;;
84275;SDS011;74432;51.212;3.254;2024-03-17T14:48:08;7.60;;;3.50;;
84275;SDS011;74432;51.212;3.254;2024-03-17T14:50:39;8.95;;;3.30;;
84275;SDS011;74432;51.212;3.254;2024-03-17T14:53:05;5.72;;;3.10;;
84275;SDS011;74432;51.212;3.254;2024-03-17T14:55:32;9.40;;;3.53;;
84275;SDS011;74432;51.212;3.254;2024-03-17T14:57:59;7.78;;;4.22;;
84275;SDS011;74432;51.212;3.254;2024-03-17T15:00:28;7.47;;;4.07;;
84275;SDS011;74432;51.212;3.254;2024-03-17T15:02:56;8.70;;;4.22;;
84275;SDS011;74432;51.212;3.254;2024-03-17T15:05:22;7.38;;;3.50;;
84275;SDS011;74432;51.212;3.254;2024-03-17T15:07:49;11.52;;;4.00;;
84275;SDS011;74432;51.212;3.254;2024-03-17T15:10:15;8.57;;;3.90;;
84275;SDS011;74432;51.212;3.254;2024-03-17T15:12:48;9.48;;;3.70;;
84275;SDS011;74432;51.212;3.254;2024-03-17T15:15:15;4.88;;;3.45;;
84275;SDS011;74432;51.212;3.254;2024-03-17T15:17:41;6.60;;;3.60;;
84275;SDS011;74432;51.212;3.254;2024-03-17T15:20:09;10.30;;;3.80;;